sensor_id;sensor_type;location;lat;lon;timestamp;P1;durP1;ratioP1;P2;durP2;ratioP2
10711;SDS011;5407;51.234;6.804;2023-08-06T00:01:48;4.63;;;2.97;;
10711;SDS011;5407;51.234;6.804;2023-08-06T00:04:15;4.23;;;3.50;;
10711;SDS011;5407;51.234;6.804;2023-08-06T00:06:42;5.23;;;3.33;;
10711;SDS011;5407;51.234;6.804;2023-08-06T00:09:09;4.37;;;3.47;;
10711;SDS011;5407;51.234;6.804;2023-08-06T00:11:37;5.53;;;2.90;;
10711;SDS011;5407;51.234;6.804;2023-08-06T00:14:04;4.73;;;3.13;;
10711;SDS011;5407;51.234;6.804;2023-08-06T00:16:31;5.17;;;3.00;;
10711;SDS011;5407;51.234;6.804;2023-08-06T00:18:57;6.40;;;3.13;;
10711;SDS011;5407;51.234;6.804;2023-08-06T00:21:24;4.13;;;3.07;;
10711;SDS011;5407;51.234;6.804;2023-08-06T00:23:51;5.17;;;3.10;;
10711;SDS011;5407;51.234;6.804;2023-08-06T00:26:18;5.50;;;2.90;;
10711;SDS011;5407;51.234;6.804;2023-08-06T00:28:46;5.07;;;3.03;;
10711;SDS011;5407;51.234;6.804;2023-08-06T00:31:14;5.27;;;2.93;;
10711;SDS011;5407;51.234;6.804;2023-08-06T00:33:40;7.13;;;2.97;;
10711;SDS011;5407;51.234;6.804;2023-08-06T00:36:07;6.00;;;4.73;;
10711;SDS011;5407;51.234;6.804;2023-08-06T00:38:34;7.03;;;3.30;;
10711;SDS011;5407;51.234;6.804;2023-08-06T00:41:01;6.13;;;3.30;;
10711;SDS011;5407;51.234;6.804;2023-08-06T00:43:28;4.63;;;3.00;;
10711;SDS011;5407;51.234;6.804;2023-08-06T00:45:56;5.50;;;3.00;;
10711;SDS011;5407;51.234;6.804;2023-08-06T00:48:23;6.33;;;3.20;;
10711;SDS011;5407;51.234;6.804;2023-08-06T00:50:50;4.97;;;3.20;;
10711;SDS011;5407;51.234;6.804;2023-08-06T00:53:17;4.23;;;3.00;;
10711;SDS011;5407;51.234;6.804;2023-08-06T00:55:44;5.20;;;2.90;;
10711;SDS011;5407;51.234;6.804;2023-08-06T00:58:11;5.57;;;3.10;;
10711;SDS011;5407;51.234;6.804;2023-08-06T01:00:39;4.93;;;2.87;;
10711;SDS011;5407;51.234;6.804;2023-08-06T01:03:07;4.13;;;2.83;;
10711;SDS011;5407;51.234;6.804;2023-08-06T01:05:34;7.87;;;2.63;;
10711;SDS011;5407;51.234;6.804;2023-08-06T01:08:12;7.93;;;2.90;;
10711;SDS011;5407;51.234;6.804;2023-08-06T01:10:49;3.97;;;2.60;;
10711;SDS011;5407;51.234;6.804;2023-08-06T01:13:28;4.37;;;2.80;;
10711;SDS011;5407;51.234;6.804;2023-08-06T01:16:01;7.50;;;2.70;;
10711;SDS011;5407;51.234;6.804;2023-08-06T01:18:32;5.80;;;2.70;;
10711;SDS011;5407;51.234;6.804;2023-08-06T01:21:00;4.90;;;2.50;;
10711;SDS011;5407;51.234;6.804;2023-08-06T01:23:27;5.53;;;2.80;;
10711;SDS011;5407;51.234;6.804;2023-08-06T01:25:56;6.43;;;3.10;;
10711;SDS011;5407;51.234;6.804;2023-08-06T01:28:32;3.83;;;2.80;;
10711;SDS011;5407;51.234;6.804;2023-08-06T01:31:10;6.47;;;4.53;;
10711;SDS011;5407;51.234;6.804;2023-08-06T01:33:45;3.13;;;2.60;;
10711;SDS011;5407;51.234;6.804;2023-08-06T01:36:15;3.67;;;3.00;;
10711;SDS011;5407;51.234;6.804;2023-08-06T01:38:44;5.30;;;2.90;;
10711;SDS011;5407;51.234;6.804;2023-08-06T01:41:11;6.20;;;2.87;;
10711;SDS011;5407;51.234;6.804;2023-08-06T01:43:38;8.07;;;2.80;;
10711;SDS011;5407;51.234;6.804;2023-08-06T01:46:05;7.33;;;3.00;;
10711;SDS011;5407;51.234;6.804;2023-08-06T01:48:31;4.97;;;4.27;;
10711;SDS011;5407;51.234;6.804;2023-08-06T01:50:58;4.10;;;2.57;;
10711;SDS011;5407;51.234;6.804;2023-08-06T01:53:26;5.90;;;3.00;;
10711;SDS011;5407;51.234;6.804;2023-08-06T01:55:53;4.67;;;2.93;;
10711;SDS011;5407;51.234;6.804;2023-08-06T01:58:20;3.80;;;2.83;;
10711;SDS011;5407;51.234;6.804;2023-08-06T02:00:47;6.03;;;3.00;;
10711;SDS011;5407;51.234;6.804;2023-08-06T02:03:14;4.33;;;3.00;;
10711;SDS011;5407;51.234;6.804;2023-08-06T02:05:41;5.00;;;3.13;;
10711;SDS011;5407;51.234;6.804;2023-08-06T02:08:07;7.23;;;3.10;;
10711;SDS011;5407;51.234;6.804;2023-08-06T02:10:36;4.70;;;2.77;;
10711;SDS011;5407;51.234;6.804;2023-08-06T02:13:03;6.37;;;2.90;;
10711;SDS011;5407;51.234;6.804;2023-08-06T02:15:29;5.77;;;3.27;;
10711;SDS011;5407;51.234;6.804;2023-08-06T02:17:56;3.53;;;2.70;;
10711;SDS011;5407;51.234;6.804;2023-08-06T02:20:23;5.03;;;2.90;;
10711;SDS011;5407;51.234;6.804;2023-08-06T02:22:50;5.80;;;3.67;;
10711;SDS011;5407;51.234;6.804;2023-08-06T02:25:17;7.33;;;6.07;;
10711;SDS011;5407;51.234;6.804;2023-08-06T02:27:45;6.13;;;2.93;;
10711;SDS011;5407;51.234;6.804;2023-08-06T02:30:12;5.63;;;2.90;;
10711;SDS011;5407;51.234;6.804;2023-08-06T02:32:39;6.53;;;3.20;;
10711;SDS011;5407;51.234;6.804;2023-08-06T02:35:06;4.80;;;3.30;;
10711;SDS011;5407;51.234;6.804;2023-08-06T02:37:33;6.23;;;3.57;;
10711;SDS011;5407;51.234;6.804;2023-08-06T02:40:00;6.10;;;3.27;;
10711;SDS011;5407;51.234;6.804;2023-08-06T02:42:27;9.63;;;4.30;;
10711;SDS011;5407;51.234;6.804;2023-08-06T02:44:55;6.03;;;3.87;;
10711;SDS011;5407;51.234;6.804;2023-08-06T02:47:22;6.20;;;3.80;;
10711;SDS011;5407;51.234;6.804;2023-08-06T02:49:50;6.60;;;3.77;;
10711;SDS011;5407;51.234;6.804;2023-08-06T02:52:18;6.60;;;3.10;;
10711;SDS011;5407;51.234;6.804;2023-08-06T02:54:45;9.87;;;3.17;;
10711;SDS011;5407;51.234;6.804;2023-08-06T02:57:13;6.83;;;3.30;;
10711;SDS011;5407;51.234;6.804;2023-08-06T02:59:40;11.57;;;3.10;;
10711;SDS011;5407;51.234;6.804;2023-08-06T03:02:15;4.30;;;2.77;;
10711;SDS011;5407;51.234;6.804;2023-08-06T03:04:52;6.20;;;3.47;;
10711;SDS011;5407;51.234;6.804;2023-08-06T03:07:22;4.77;;;3.30;;
10711;SDS011;5407;51.234;6.804;2023-08-06T03:09:54;3.63;;;3.10;;
10711;SDS011;5407;51.234;6.804;2023-08-06T03:12:21;6.77;;;3.00;;
10711;SDS011;5407;51.234;6.804;2023-08-06T03:14:48;7.07;;;3.07;;
10711;SDS011;5407;51.234;6.804;2023-08-06T03:17:17;2.83;;;2.60;;
10711;SDS011;5407;51.234;6.804;2023-08-06T03:19:44;3.67;;;2.73;;
10711;SDS011;5407;51.234;6.804;2023-08-06T03:22:12;5.37;;;2.83;;
10711;SDS011;5407;51.234;6.804;2023-08-06T03:24:39;3.53;;;2.90;;
10711;SDS011;5407;51.234;6.804;2023-08-06T03:27:07;4.80;;;2.90;;
10711;SDS011;5407;51.234;6.804;2023-08-06T03:29:36;6.67;;;3.47;;
10711;SDS011;5407;51.234;6.804;2023-08-06T03:32:03;5.00;;;3.90;;
10711;SDS011;5407;51.234;6.804;2023-08-06T03:34:32;4.03;;;2.93;;
10711;SDS011;5407;51.234;6.804;2023-08-06T03:37:00;5.13;;;2.90;;
10711;SDS011;5407;51.234;6.804;2023-08-06T03:39:26;4.83;;;3.13;;
10711;SDS011;5407;51.234;6.804;2023-08-06T03:41:53;5.30;;;3.13;;
10711;SDS011;5407;51.234;6.804;2023-08-06T03:44:21;3.73;;;2.63;;
10711;SDS011;5407;51.234;6.804;2023-08-06T03:46:48;6.97;;;2.83;;
10711;SDS011;5407;51.234;6.804;2023-08-06T03:49:15;4.30;;;3.10;;
10711;SDS011;5407;51.234;6.804;2023-08-06T03:51:43;3.53;;;2.50;;
10711;SDS011;5407;51.234;6.804;2023-08-06T03:54:11;4.47;;;2.90;;
10711;SDS011;5407;51.234;6.804;2023-08-06T03:56:38;7.03;;;2.57;;
10711;SDS011;5407;51.234;6.804;2023-08-06T03:59:04;4.23;;;2.90;;
10711;SDS011;5407;51.234;6.804;2023-08-06T04:01:31;5.00;;;2.93;;
10711;SDS011;5407;51.234;6.804;2023-08-06T04:03:58;4.23;;;2.83;;
10711;SDS011;5407;51.234;6.804;2023-08-06T04:06:25;3.80;;;2.53;;
10711;SDS011;5407;51.234;6.804;2023-08-06T04:08:53;5.20;;;2.90;;
10711;SDS011;5407;51.234;6.804;2023-08-06T04:11:20;3.10;;;2.70;;
10711;SDS011;5407;51.234;6.804;2023-08-06T04:13:47;3.77;;;2.50;;
10711;SDS011;5407;51.234;6.804;2023-08-06T04:16:14;3.50;;;2.50;;
10711;SDS011;5407;51.234;6.804;2023-08-06T04:18:41;4.47;;;2.77;;
10711;SDS011;5407;51.234;6.804;2023-08-06T04:21:08;6.37;;;2.60;;
10711;SDS011;5407;51.234;6.804;2023-08-06T04:23:35;3.83;;;2.60;;
10711;SDS011;5407;51.234;6.804;2023-08-06T04:26:06;3.93;;;2.47;;
10711;SDS011;5407;51.234;6.804;2023-08-06T04:28:34;5.50;;;2.80;;
10711;SDS011;5407;51.234;6.804;2023-08-06T04:31:01;4.83;;;2.70;;
10711;SDS011;5407;51.234;6.804;2023-08-06T04:33:31;3.00;;;2.50;;
10711;SDS011;5407;51.234;6.804;2023-08-06T04:36:03;4.67;;;2.60;;
10711;SDS011;5407;51.234;6.804;2023-08-06T04:38:30;6.33;;;2.73;;
10711;SDS011;5407;51.234;6.804;2023-08-06T04:40:57;3.53;;;2.50;;
10711;SDS011;5407;51.234;6.804;2023-08-06T04:43:25;4.00;;;2.60;;
10711;SDS011;5407;51.234;6.804;2023-08-06T04:45:53;3.63;;;2.30;;
10711;SDS011;5407;51.234;6.804;2023-08-06T04:48:21;5.17;;;2.70;;
10711;SDS011;5407;51.234;6.804;2023-08-06T04:50:49;7.37;;;2.77;;
10711;SDS011;5407;51.234;6.804;2023-08-06T04:53:16;7.37;;;2.63;;
10711;SDS011;5407;51.234;6.804;2023-08-06T04:55:43;6.00;;;2.97;;
10711;SDS011;5407;51.234;6.804;2023-08-06T04:58:10;4.10;;;2.30;;
10711;SDS011;5407;51.234;6.804;2023-08-06T05:00:40;2.97;;;2.67;;
10711;SDS011;5407;51.234;6.804;2023-08-06T05:03:07;4.30;;;2.47;;
10711;SDS011;5407;51.234;6.804;2023-08-06T05:05:34;4.67;;;2.70;;
10711;SDS011;5407;51.234;6.804;2023-08-06T05:08:01;6.40;;;2.97;;
10711;SDS011;5407;51.234;6.804;2023-08-06T05:10:27;5.30;;;2.63;;
10711;SDS011;5407;51.234;6.804;2023-08-06T05:12:55;3.53;;;2.57;;
10711;SDS011;5407;51.234;6.804;2023-08-06T05:15:22;5.27;;;2.83;;
10711;SDS011;5407;51.234;6.804;2023-08-06T05:17:51;5.40;;;2.63;;
10711;SDS011;5407;51.234;6.804;2023-08-06T05:20:19;4.33;;;2.80;;
10711;SDS011;5407;51.234;6.804;2023-08-06T05:22:46;4.83;;;2.80;;
10711;SDS011;5407;51.234;6.804;2023-08-06T05:25:13;8.50;;;3.10;;
10711;SDS011;5407;51.234;6.804;2023-08-06T05:27:40;8.83;;;2.97;;
10711;SDS011;5407;51.234;6.804;2023-08-06T05:30:08;7.47;;;3.10;;
10711;SDS011;5407;51.234;6.804;2023-08-06T05:32:35;5.37;;;3.00;;
10711;SDS011;5407;51.234;6.804;2023-08-06T05:35:04;5.50;;;2.93;;
10711;SDS011;5407;51.234;6.804;2023-08-06T05:37:31;6.30;;;3.23;;
10711;SDS011;5407;51.234;6.804;2023-08-06T05:39:58;4.20;;;2.80;;
10711;SDS011;5407;51.234;6.804;2023-08-06T05:42:26;4.37;;;2.80;;
10711;SDS011;5407;51.234;6.804;2023-08-06T05:44:52;5.40;;;2.80;;
10711;SDS011;5407;51.234;6.804;2023-08-06T05:47:19;4.90;;;2.70;;
10711;SDS011;5407;51.234;6.804;2023-08-06T05:49:46;4.90;;;2.40;;
10711;SDS011;5407;51.234;6.804;2023-08-06T05:52:14;3.30;;;2.47;;
10711;SDS011;5407;51.234;6.804;2023-08-06T05:54:41;6.33;;;2.57;;
10711;SDS011;5407;51.234;6.804;2023-08-06T05:57:08;3.83;;;2.30;;
10711;SDS011;5407;51.234;6.804;2023-08-06T05:59:35;5.40;;;2.20;;
10711;SDS011;5407;51.234;6.804;2023-08-06T06:02:02;5.13;;;2.10;;
10711;SDS011;5407;51.234;6.804;2023-08-06T06:04:29;4.00;;;2.40;;
10711;SDS011;5407;51.234;6.804;2023-08-06T06:06:56;3.87;;;2.33;;
10711;SDS011;5407;51.234;6.804;2023-08-06T06:09:24;3.93;;;2.30;;
10711;SDS011;5407;51.234;6.804;2023-08-06T06:11:51;4.43;;;2.07;;
10711;SDS011;5407;51.234;6.804;2023-08-06T06:14:18;3.80;;;2.00;;
10711;SDS011;5407;51.234;6.804;2023-08-06T06:16:45;5.00;;;2.00;;
10711;SDS011;5407;51.234;6.804;2023-08-06T06:19:12;3.43;;;1.93;;
10711;SDS011;5407;51.234;6.804;2023-08-06T06:21:39;2.97;;;1.80;;
10711;SDS011;5407;51.234;6.804;2023-08-06T06:24:06;4.07;;;2.13;;
10711;SDS011;5407;51.234;6.804;2023-08-06T06:26:35;3.83;;;1.87;;
10711;SDS011;5407;51.234;6.804;2023-08-06T06:29:01;2.50;;;1.90;;
10711;SDS011;5407;51.234;6.804;2023-08-06T06:31:28;3.93;;;1.83;;
10711;SDS011;5407;51.234;6.804;2023-08-06T06:33:55;4.40;;;1.90;;
10711;SDS011;5407;51.234;6.804;2023-08-06T06:36:22;3.50;;;1.87;;
10711;SDS011;5407;51.234;6.804;2023-08-06T06:38:50;2.40;;;1.77;;
10711;SDS011;5407;51.234;6.804;2023-08-06T06:41:17;3.97;;;1.80;;
10711;SDS011;5407;51.234;6.804;2023-08-06T06:43:45;3.37;;;1.80;;
10711;SDS011;5407;51.234;6.804;2023-08-06T06:46:12;5.75;;;1.98;;
10711;SDS011;5407;51.234;6.804;2023-08-06T06:48:39;2.90;;;2.00;;
10711;SDS011;5407;51.234;6.804;2023-08-06T06:51:06;2.10;;;1.70;;
10711;SDS011;5407;51.234;6.804;2023-08-06T06:53:32;3.97;;;1.60;;
10711;SDS011;5407;51.234;6.804;2023-08-06T06:56:01;3.83;;;1.57;;
10711;SDS011;5407;51.234;6.804;2023-08-06T06:58:29;3.70;;;1.77;;
10711;SDS011;5407;51.234;6.804;2023-08-06T07:00:57;2.83;;;1.50;;
10711;SDS011;5407;51.234;6.804;2023-08-06T07:03:24;2.27;;;1.50;;
10711;SDS011;5407;51.234;6.804;2023-08-06T07:05:51;4.50;;;1.97;;
10711;SDS011;5407;51.234;6.804;2023-08-06T07:08:23;4.27;;;1.60;;
10711;SDS011;5407;51.234;6.804;2023-08-06T07:10:50;1.53;;;1.43;;
10711;SDS011;5407;51.234;6.804;2023-08-06T07:13:16;1.83;;;1.60;;
10711;SDS011;5407;51.234;6.804;2023-08-06T07:15:43;2.07;;;1.50;;
10711;SDS011;5407;51.234;6.804;2023-08-06T07:18:12;2.83;;;1.50;;
10711;SDS011;5407;51.234;6.804;2023-08-06T07:20:38;2.33;;;1.33;;
10711;SDS011;5407;51.234;6.804;2023-08-06T07:23:05;2.00;;;1.50;;
10711;SDS011;5407;51.234;6.804;2023-08-06T07:25:32;2.07;;;1.43;;
10711;SDS011;5407;51.234;6.804;2023-08-06T07:27:59;1.80;;;1.50;;
10711;SDS011;5407;51.234;6.804;2023-08-06T07:30:27;4.23;;;1.60;;
10711;SDS011;5407;51.234;6.804;2023-08-06T07:32:54;3.00;;;1.57;;
10711;SDS011;5407;51.234;6.804;2023-08-06T07:35:24;1.60;;;1.50;;
10711;SDS011;5407;51.234;6.804;2023-08-06T07:37:51;2.27;;;1.60;;
10711;SDS011;5407;51.234;6.804;2023-08-06T07:40:19;2.47;;;1.67;;
10711;SDS011;5407;51.234;6.804;2023-08-06T07:42:46;3.00;;;1.70;;
10711;SDS011;5407;51.234;6.804;2023-08-06T07:45:13;3.30;;;1.80;;
10711;SDS011;5407;51.234;6.804;2023-08-06T07:47:40;1.63;;;1.53;;
10711;SDS011;5407;51.234;6.804;2023-08-06T07:50:08;1.92;;;1.67;;
10711;SDS011;5407;51.234;6.804;2023-08-06T07:52:36;2.53;;;2.00;;
10711;SDS011;5407;51.234;6.804;2023-08-06T07:55:03;2.20;;;1.60;;
10711;SDS011;5407;51.234;6.804;2023-08-06T07:57:31;2.37;;;1.83;;
10711;SDS011;5407;51.234;6.804;2023-08-06T07:59:59;1.90;;;1.55;;
10711;SDS011;5407;51.234;6.804;2023-08-06T08:02:26;2.27;;;2.07;;
10711;SDS011;5407;51.234;6.804;2023-08-06T08:04:55;2.30;;;2.07;;
10711;SDS011;5407;51.234;6.804;2023-08-06T08:07:22;2.40;;;2.20;;
10711;SDS011;5407;51.234;6.804;2023-08-06T08:09:50;3.57;;;2.70;;
10711;SDS011;5407;51.234;6.804;2023-08-06T08:12:17;4.95;;;2.70;;
10711;SDS011;5407;51.234;6.804;2023-08-06T08:14:44;6.07;;;3.80;;
10711;SDS011;5407;51.234;6.804;2023-08-06T08:17:11;4.40;;;3.27;;
10711;SDS011;5407;51.234;6.804;2023-08-06T08:19:38;3.80;;;3.50;;
10711;SDS011;5407;51.234;6.804;2023-08-06T08:22:06;3.63;;;3.30;;
10711;SDS011;5407;51.234;6.804;2023-08-06T08:24:33;4.60;;;3.50;;
10711;SDS011;5407;51.234;6.804;2023-08-06T08:27:01;5.83;;;3.60;;
10711;SDS011;5407;51.234;6.804;2023-08-06T08:29:28;4.87;;;2.80;;
10711;SDS011;5407;51.234;6.804;2023-08-06T08:31:55;4.10;;;2.73;;
10711;SDS011;5407;51.234;6.804;2023-08-06T08:34:22;3.42;;;2.67;;
10711;SDS011;5407;51.234;6.804;2023-08-06T08:36:49;4.10;;;2.20;;
10711;SDS011;5407;51.234;6.804;2023-08-06T08:39:16;2.88;;;2.25;;
10711;SDS011;5407;51.234;6.804;2023-08-06T08:41:43;2.58;;;2.33;;
10711;SDS011;5407;51.234;6.804;2023-08-06T08:44:11;3.78;;;2.08;;
10711;SDS011;5407;51.234;6.804;2023-08-06T08:46:42;4.00;;;2.20;;
10711;SDS011;5407;51.234;6.804;2023-08-06T08:49:10;3.13;;;1.83;;
10711;SDS011;5407;51.234;6.804;2023-08-06T08:51:38;2.30;;;2.10;;
10711;SDS011;5407;51.234;6.804;2023-08-06T08:54:05;3.88;;;2.20;;
10711;SDS011;5407;51.234;6.804;2023-08-06T08:56:35;3.33;;;1.70;;
10711;SDS011;5407;51.234;6.804;2023-08-06T08:59:02;1.98;;;1.75;;
10711;SDS011;5407;51.234;6.804;2023-08-06T09:01:30;1.80;;;1.70;;
10711;SDS011;5407;51.234;6.804;2023-08-06T09:03:57;2.30;;;1.50;;
10711;SDS011;5407;51.234;6.804;2023-08-06T09:06:25;1.70;;;1.60;;
10711;SDS011;5407;51.234;6.804;2023-08-06T09:08:56;2.05;;;1.58;;
10711;SDS011;5407;51.234;6.804;2023-08-06T09:11:29;2.88;;;1.50;;
10711;SDS011;5407;51.234;6.804;2023-08-06T09:14:04;2.90;;;1.60;;
10711;SDS011;5407;51.234;6.804;2023-08-06T09:16:35;3.30;;;1.90;;
10711;SDS011;5407;51.234;6.804;2023-08-06T09:19:11;6.85;;;5.25;;
10711;SDS011;5407;51.234;6.804;2023-08-06T09:21:41;3.88;;;1.90;;
10711;SDS011;5407;51.234;6.804;2023-08-06T09:24:08;5.07;;;2.30;;
10711;SDS011;5407;51.234;6.804;2023-08-06T09:26:36;3.83;;;2.55;;
10711;SDS011;5407;51.234;6.804;2023-08-06T09:29:04;3.38;;;2.15;;
10711;SDS011;5407;51.234;6.804;2023-08-06T09:31:33;2.95;;;2.38;;
10711;SDS011;5407;51.234;6.804;2023-08-06T09:34:02;4.70;;;2.60;;
10711;SDS011;5407;51.234;6.804;2023-08-06T09:36:29;5.82;;;2.92;;
10711;SDS011;5407;51.234;6.804;2023-08-06T09:38:56;8.98;;;2.60;;
10711;SDS011;5407;51.234;6.804;2023-08-06T09:41:26;4.00;;;2.45;;
10711;SDS011;5407;51.234;6.804;2023-08-06T09:43:54;5.18;;;3.75;;
10711;SDS011;5407;51.234;6.804;2023-08-06T09:46:21;4.07;;;2.50;;
10711;SDS011;5407;51.234;6.804;2023-08-06T09:48:48;6.27;;;2.60;;
10711;SDS011;5407;51.234;6.804;2023-08-06T09:51:18;4.13;;;2.80;;
10711;SDS011;5407;51.234;6.804;2023-08-06T09:53:45;8.77;;;2.80;;
10711;SDS011;5407;51.234;6.804;2023-08-06T09:56:15;4.53;;;3.07;;
10711;SDS011;5407;51.234;6.804;2023-08-06T09:58:44;5.03;;;2.77;;
10711;SDS011;5407;51.234;6.804;2023-08-06T10:01:13;4.43;;;2.70;;
10711;SDS011;5407;51.234;6.804;2023-08-06T10:03:42;7.23;;;3.30;;
10711;SDS011;5407;51.234;6.804;2023-08-06T10:06:10;5.40;;;2.73;;
10711;SDS011;5407;51.234;6.804;2023-08-06T10:08:38;5.37;;;3.03;;
10711;SDS011;5407;51.234;6.804;2023-08-06T10:11:07;5.73;;;2.67;;
10711;SDS011;5407;51.234;6.804;2023-08-06T10:13:35;5.87;;;2.87;;
10711;SDS011;5407;51.234;6.804;2023-08-06T10:16:03;3.87;;;2.50;;
10711;SDS011;5407;51.234;6.804;2023-08-06T10:18:31;3.67;;;2.00;;
10711;SDS011;5407;51.234;6.804;2023-08-06T10:20:59;3.73;;;2.10;;
10711;SDS011;5407;51.234;6.804;2023-08-06T10:23:32;4.00;;;2.03;;
10711;SDS011;5407;51.234;6.804;2023-08-06T10:26:04;2.13;;;1.80;;
10711;SDS011;5407;51.234;6.804;2023-08-06T10:28:33;2.67;;;2.00;;
10711;SDS011;5407;51.234;6.804;2023-08-06T10:31:01;2.60;;;1.73;;
10711;SDS011;5407;51.234;6.804;2023-08-06T10:33:39;2.50;;;2.00;;
10711;SDS011;5407;51.234;6.804;2023-08-06T10:36:08;2.70;;;1.60;;
10711;SDS011;5407;51.234;6.804;2023-08-06T10:38:36;2.20;;;1.50;;
10711;SDS011;5407;51.234;6.804;2023-08-06T10:41:16;1.47;;;1.37;;
10711;SDS011;5407;51.234;6.804;2023-08-06T10:43:50;1.20;;;1.10;;
10711;SDS011;5407;51.234;6.804;2023-08-06T10:46:23;1.50;;;1.40;;
10711;SDS011;5407;51.234;6.804;2023-08-06T10:48:53;1.30;;;1.20;;
10711;SDS011;5407;51.234;6.804;2023-08-06T10:51:20;0.90;;;0.90;;
10711;SDS011;5407;51.234;6.804;2023-08-06T10:53:49;0.90;;;0.90;;
10711;SDS011;5407;51.234;6.804;2023-08-06T10:56:19;2.10;;;1.03;;
10711;SDS011;5407;51.234;6.804;2023-08-06T10:58:47;1.40;;;1.30;;
10711;SDS011;5407;51.234;6.804;2023-08-06T11:01:15;1.50;;;1.40;;
10711;SDS011;5407;51.234;6.804;2023-08-06T11:03:45;2.60;;;1.40;;
10711;SDS011;5407;51.234;6.804;2023-08-06T11:06:16;1.60;;;1.50;;
10711;SDS011;5407;51.234;6.804;2023-08-06T11:08:47;1.43;;;1.33;;
10711;SDS011;5407;51.234;6.804;2023-08-06T11:11:15;2.50;;;1.40;;
10711;SDS011;5407;51.234;6.804;2023-08-06T11:13:44;1.97;;;1.80;;
10711;SDS011;5407;51.234;6.804;2023-08-06T11:16:12;8.30;;;3.23;;
10711;SDS011;5407;51.234;6.804;2023-08-06T11:18:39;2.70;;;2.00;;
10711;SDS011;5407;51.234;6.804;2023-08-06T11:21:07;2.17;;;1.70;;
10711;SDS011;5407;51.234;6.804;2023-08-06T11:23:34;4.97;;;2.70;;
10711;SDS011;5407;51.234;6.804;2023-08-06T11:26:01;3.60;;;2.33;;
10711;SDS011;5407;51.234;6.804;2023-08-06T11:28:28;3.10;;;2.13;;
10711;SDS011;5407;51.234;6.804;2023-08-06T11:30:57;3.60;;;1.87;;
10711;SDS011;5407;51.234;6.804;2023-08-06T11:33:27;2.03;;;1.60;;
10711;SDS011;5407;51.234;6.804;2023-08-06T11:35:55;2.37;;;1.70;;
10711;SDS011;5407;51.234;6.804;2023-08-06T11:38:24;3.33;;;1.70;;
10711;SDS011;5407;51.234;6.804;2023-08-06T11:40:52;1.90;;;1.80;;
10711;SDS011;5407;51.234;6.804;2023-08-06T11:43:20;2.23;;;1.90;;
10711;SDS011;5407;51.234;6.804;2023-08-06T11:45:48;2.13;;;1.90;;
10711;SDS011;5407;51.234;6.804;2023-08-06T11:48:17;3.50;;;2.20;;
10711;SDS011;5407;51.234;6.804;2023-08-06T11:50:44;3.50;;;2.60;;
10711;SDS011;5407;51.234;6.804;2023-08-06T11:53:12;6.33;;;2.97;;
10711;SDS011;5407;51.234;6.804;2023-08-06T11:55:40;4.23;;;2.87;;
10711;SDS011;5407;51.234;6.804;2023-08-06T11:58:09;4.73;;;3.10;;
10711;SDS011;5407;51.234;6.804;2023-08-06T12:00:36;3.80;;;2.87;;
10711;SDS011;5407;51.234;6.804;2023-08-06T12:03:04;5.53;;;4.13;;
10711;SDS011;5407;51.234;6.804;2023-08-06T12:05:33;4.00;;;3.13;;
10711;SDS011;5407;51.234;6.804;2023-08-06T12:08:00;7.37;;;3.43;;
10711;SDS011;5407;51.234;6.804;2023-08-06T12:10:29;5.57;;;3.70;;
10711;SDS011;5407;51.234;6.804;2023-08-06T12:12:56;4.43;;;3.10;;
10711;SDS011;5407;51.234;6.804;2023-08-06T12:15:23;5.87;;;3.43;;
10711;SDS011;5407;51.234;6.804;2023-08-06T12:17:50;3.53;;;2.93;;
10711;SDS011;5407;51.234;6.804;2023-08-06T12:20:17;5.93;;;3.60;;
10711;SDS011;5407;51.234;6.804;2023-08-06T12:22:46;5.17;;;2.97;;
10711;SDS011;5407;51.234;6.804;2023-08-06T12:25:13;6.63;;;3.50;;
10711;SDS011;5407;51.234;6.804;2023-08-06T12:27:40;5.50;;;3.37;;
10711;SDS011;5407;51.234;6.804;2023-08-06T12:30:09;3.53;;;2.83;;
10711;SDS011;5407;51.234;6.804;2023-08-06T12:32:37;5.50;;;3.90;;
10711;SDS011;5407;51.234;6.804;2023-08-06T12:35:04;7.93;;;5.93;;
10711;SDS011;5407;51.234;6.804;2023-08-06T12:37:33;5.77;;;3.77;;
10711;SDS011;5407;51.234;6.804;2023-08-06T12:40:02;3.70;;;3.30;;
10711;SDS011;5407;51.234;6.804;2023-08-06T12:42:29;4.20;;;3.30;;
10711;SDS011;5407;51.234;6.804;2023-08-06T12:44:56;4.07;;;2.90;;
10711;SDS011;5407;51.234;6.804;2023-08-06T12:47:23;5.03;;;3.30;;
10711;SDS011;5407;51.234;6.804;2023-08-06T12:49:50;4.53;;;2.90;;
10711;SDS011;5407;51.234;6.804;2023-08-06T12:52:19;4.10;;;3.03;;
10711;SDS011;5407;51.234;6.804;2023-08-06T12:54:46;4.90;;;2.83;;
10711;SDS011;5407;51.234;6.804;2023-08-06T12:57:15;3.70;;;2.77;;
10711;SDS011;5407;51.234;6.804;2023-08-06T12:59:42;4.53;;;3.00;;
10711;SDS011;5407;51.234;6.804;2023-08-06T13:02:09;5.93;;;3.10;;
10711;SDS011;5407;51.234;6.804;2023-08-06T13:04:36;4.30;;;2.70;;
10711;SDS011;5407;51.234;6.804;2023-08-06T13:07:03;5.70;;;2.97;;
10711;SDS011;5407;51.234;6.804;2023-08-06T13:09:31;4.07;;;2.87;;
10711;SDS011;5407;51.234;6.804;2023-08-06T13:11:58;2.93;;;2.60;;
10711;SDS011;5407;51.234;6.804;2023-08-06T13:14:31;3.53;;;2.60;;
10711;SDS011;5407;51.234;6.804;2023-08-06T13:16:58;5.37;;;2.80;;
10711;SDS011;5407;51.234;6.804;2023-08-06T13:19:25;4.30;;;2.70;;
10711;SDS011;5407;51.234;6.804;2023-08-06T13:21:58;4.00;;;2.77;;
10711;SDS011;5407;51.234;6.804;2023-08-06T13:24:27;2.97;;;2.60;;
10711;SDS011;5407;51.234;6.804;2023-08-06T13:26:54;8.83;;;6.03;;
10711;SDS011;5407;51.234;6.804;2023-08-06T13:29:21;7.40;;;3.93;;
10711;SDS011;5407;51.234;6.804;2023-08-06T13:31:49;5.70;;;2.90;;
10711;SDS011;5407;51.234;6.804;2023-08-06T13:34:16;6.23;;;4.07;;
10711;SDS011;5407;51.234;6.804;2023-08-06T13:36:43;4.33;;;2.80;;
10711;SDS011;5407;51.234;6.804;2023-08-06T13:39:10;4.93;;;3.10;;
10711;SDS011;5407;51.234;6.804;2023-08-06T13:41:37;5.47;;;4.27;;
10711;SDS011;5407;51.234;6.804;2023-08-06T13:44:05;5.80;;;5.23;;
10711;SDS011;5407;51.234;6.804;2023-08-06T13:46:32;7.47;;;6.53;;
10711;SDS011;5407;51.234;6.804;2023-08-06T13:49:00;6.27;;;3.80;;
10711;SDS011;5407;51.234;6.804;2023-08-06T13:51:27;4.20;;;3.03;;
10711;SDS011;5407;51.234;6.804;2023-08-06T13:53:55;5.80;;;4.63;;
10711;SDS011;5407;51.234;6.804;2023-08-06T13:56:22;5.90;;;4.73;;
10711;SDS011;5407;51.234;6.804;2023-08-06T13:58:49;4.77;;;3.80;;
10711;SDS011;5407;51.234;6.804;2023-08-06T14:01:17;6.00;;;4.10;;
10711;SDS011;5407;51.234;6.804;2023-08-06T14:03:44;6.30;;;3.30;;
10711;SDS011;5407;51.234;6.804;2023-08-06T14:06:13;4.23;;;3.03;;
10711;SDS011;5407;51.234;6.804;2023-08-06T14:08:39;4.73;;;3.50;;
10711;SDS011;5407;51.234;6.804;2023-08-06T14:11:06;6.03;;;3.37;;
10711;SDS011;5407;51.234;6.804;2023-08-06T14:13:33;5.00;;;3.37;;
10711;SDS011;5407;51.234;6.804;2023-08-06T14:16:00;3.97;;;2.60;;
10711;SDS011;5407;51.234;6.804;2023-08-06T14:18:27;3.53;;;2.73;;
10711;SDS011;5407;51.234;6.804;2023-08-06T14:20:54;5.23;;;3.23;;
10711;SDS011;5407;51.234;6.804;2023-08-06T14:23:22;3.07;;;2.50;;
10711;SDS011;5407;51.234;6.804;2023-08-06T14:25:49;3.53;;;2.20;;
10711;SDS011;5407;51.234;6.804;2023-08-06T14:28:16;2.60;;;2.40;;
10711;SDS011;5407;51.234;6.804;2023-08-06T14:30:43;3.20;;;2.40;;
10711;SDS011;5407;51.234;6.804;2023-08-06T14:33:10;3.17;;;2.27;;
10711;SDS011;5407;51.234;6.804;2023-08-06T14:35:37;4.57;;;2.47;;
10711;SDS011;5407;51.234;6.804;2023-08-06T14:38:04;3.27;;;2.20;;
10711;SDS011;5407;51.234;6.804;2023-08-06T14:40:32;5.20;;;2.70;;
10711;SDS011;5407;51.234;6.804;2023-08-06T14:43:03;5.70;;;3.50;;
10711;SDS011;5407;51.234;6.804;2023-08-06T14:45:30;4.37;;;3.50;;
10711;SDS011;5407;51.234;6.804;2023-08-06T14:47:57;3.87;;;2.90;;
10711;SDS011;5407;51.234;6.804;2023-08-06T14:50:24;4.27;;;2.80;;
10711;SDS011;5407;51.234;6.804;2023-08-06T14:52:51;2.73;;;2.20;;
10711;SDS011;5407;51.234;6.804;2023-08-06T14:55:22;9.90;;;5.40;;
10711;SDS011;5407;51.234;6.804;2023-08-06T14:57:51;7.93;;;5.13;;
10711;SDS011;5407;51.234;6.804;2023-08-06T15:00:19;3.63;;;2.43;;
10711;SDS011;5407;51.234;6.804;2023-08-06T15:02:46;2.60;;;2.20;;
10711;SDS011;5407;51.234;6.804;2023-08-06T15:05:13;3.60;;;2.40;;